createdAt,value
2022-10-06T00:01:14.217Z,6.41
2022-10-06T00:03:44.694Z,6.44
2022-10-06T00:06:15.469Z,6.42
2022-10-06T00:08:44.912Z,6.40
2022-10-06T00:11:15.040Z,6.39
2022-10-06T00:13:43.925Z,6.36
2022-10-06T00:16:15.285Z,6.35
2022-10-06T00:18:44.160Z,6.33
2022-10-06T00:21:12.674Z,6.33
2022-10-06T00:23:40.853Z,6.29
2022-10-06T00:26:17.327Z,6.31
2022-10-06T00:28:50.030Z,6.34
2022-10-06T00:31:19.758Z,6.37
2022-10-06T00:33:50.300Z,6.38
2022-10-06T00:36:18.364Z,6.39
2022-10-06T00:38:46.445Z,6.37
2022-10-06T00:41:17.722Z,6.34
2022-10-06T00:43:51.763Z,6.32
2022-10-06T00:46:25.075Z,6.33
2022-10-06T00:49:12.056Z,6.31
2022-10-06T00:51:45.891Z,6.30
2022-10-06T00:54:15.400Z,6.27
2022-10-06T00:56:44.665Z,6.25
2022-10-06T00:59:15.804Z,6.21
2022-10-06T01:02:07.523Z,6.13
2022-10-06T01:04:38.885Z,6.13
2022-10-06T01:07:07.981Z,6.10
2022-10-06T01:09:38.074Z,6.09
2022-10-06T01:12:08.490Z,6.07
2022-10-06T01:14:39.364Z,6.08
2022-10-06T01:17:30.400Z,6.04
2022-10-06T01:20:09.709Z,6.06
2022-10-06T01:22:44.550Z,6.06
2022-10-06T01:25:15.928Z,6.01
2022-10-06T01:27:53.789Z,5.97
2022-10-06T01:30:46.222Z,5.93
2022-10-06T01:33:15.620Z,5.95
2022-10-06T01:35:53.315Z,5.97
2022-10-06T01:38:22.155Z,5.95
2022-10-06T01:40:54.722Z,5.95
2022-10-06T01:43:22.773Z,5.95
2022-10-06T01:45:56.432Z,5.93
2022-10-06T01:48:26.301Z,5.94
2022-10-06T01:50:55.496Z,5.89
2022-10-06T01:53:24.003Z,5.88
2022-10-06T01:55:52.154Z,5.86
2022-10-06T01:58:25.408Z,5.84
2022-10-06T02:00:54.762Z,5.81
2022-10-06T02:03:22.819Z,5.83
2022-10-06T02:05:51.564Z,5.82
2022-10-06T02:08:19.734Z,5.81
2022-10-06T02:10:48.518Z,5.81
2022-10-06T02:13:21.504Z,5.81
2022-10-06T02:15:51.310Z,5.83
2022-10-06T02:18:21.455Z,5.83
2022-10-06T02:20:50.979Z,5.83
2022-10-06T02:23:19.184Z,5.82
2022-10-06T02:25:47.438Z,5.79
2022-10-06T02:28:16.887Z,5.74
2022-10-06T02:30:46.236Z,5.73
2022-10-06T02:33:14.329Z,5.73
2022-10-06T02:35:43.932Z,5.76
2022-10-06T02:38:13.005Z,5.75
2022-10-06T02:40:41.646Z,5.74
2022-10-06T02:43:09.695Z,5.71
2022-10-06T02:45:38.555Z,5.71
2022-10-06T02:48:06.632Z,5.73
2022-10-06T02:50:37.340Z,5.71
2022-10-06T02:53:08.618Z,5.70
2022-10-06T02:55:36.575Z,5.69
2022-10-06T02:58:05.642Z,5.64
2022-10-06T03:00:33.674Z,5.63
2022-10-06T03:03:02.605Z,5.61
2022-10-06T03:05:30.683Z,5.60
2022-10-06T03:07:58.829Z,5.60
2022-10-06T03:10:27.209Z,5.58
2022-10-06T03:12:55.765Z,5.56
2022-10-06T03:15:25.515Z,5.55
2022-10-06T03:17:53.873Z,5.53
2022-10-06T03:20:21.929Z,5.51
2022-10-06T03:22:49.906Z,5.49
2022-10-06T03:25:18.084Z,5.44
2022-10-06T03:27:46.698Z,5.42
2022-10-06T03:30:15.875Z,5.40
2022-10-06T03:32:44.179Z,5.38
2022-10-06T03:35:12.240Z,5.35
2022-10-06T03:37:41.433Z,5.32
2022-10-06T03:40:10.032Z,5.31
2022-10-06T03:42:37.978Z,5.31
2022-10-06T03:45:06.584Z,5.29
2022-10-06T03:47:34.841Z,5.30
2022-10-06T03:50:02.984Z,5.25
2022-10-06T03:52:31.111Z,5.21
2022-10-06T03:55:02.687Z,5.15
2022-10-06T03:57:30.831Z,5.11
2022-10-06T04:00:00.093Z,5.05
2022-10-06T04:02:28.445Z,5.02
2022-10-06T04:04:56.862Z,5.00
2022-10-06T04:07:25.528Z,5.01
2022-10-06T04:09:53.768Z,5.01
2022-10-06T04:12:21.861Z,4.98
2022-10-06T04:14:50.868Z,4.99
2022-10-06T04:17:20.861Z,4.97
2022-10-06T04:19:48.861Z,4.98
2022-10-06T04:22:19.855Z,4.95
2022-10-06T04:24:48.344Z,4.95
2022-10-06T04:27:28.470Z,4.93
2022-10-06T04:30:06.394Z,4.92
2022-10-06T04:32:35.318Z,4.94
2022-10-06T04:35:06.892Z,4.93
2022-10-06T04:37:35.067Z,4.93
2022-10-06T04:40:03.682Z,4.91
2022-10-06T04:42:35.563Z,4.92
2022-10-06T04:45:07.674Z,4.91
2022-10-06T04:47:37.146Z,4.91
2022-10-06T04:50:06.494Z,4.92
2022-10-06T04:52:34.840Z,4.92
2022-10-06T04:55:03.537Z,4.95
2022-10-06T04:57:32.223Z,4.96
2022-10-06T05:00:21.054Z,4.95
2022-10-06T05:02:49.074Z,4.96
2022-10-06T05:05:17.937Z,5.01
2022-10-06T05:07:46.334Z,5.01
2022-10-06T05:10:18.079Z,5.04
2022-10-06T05:12:46.591Z,5.05
2022-10-06T05:15:15.789Z,5.12
2022-10-06T05:17:43.959Z,5.14
2022-10-06T05:20:12.273Z,5.19
2022-10-06T05:22:42.806Z,5.22
2022-10-06T05:25:12.271Z,5.29
2022-10-06T05:27:40.550Z,5.30
2022-10-06T05:30:09.614Z,5.31
2022-10-06T05:32:38.501Z,5.33
2022-10-06T05:35:07.981Z,5.35
2022-10-06T05:37:36.522Z,5.42
2022-10-06T05:40:05.386Z,5.45
2022-10-06T05:42:34.294Z,5.49
2022-10-06T05:45:02.437Z,5.56
2022-10-06T05:47:30.946Z,5.66
2022-10-06T05:49:59.451Z,5.72
2022-10-06T05:52:27.640Z,5.80
2022-10-06T05:54:56.036Z,5.87
2022-10-06T05:57:24.220Z,5.97
2022-10-06T05:59:52.783Z,6.07
2022-10-06T06:02:21.604Z,6.19
2022-10-06T06:04:49.803Z,6.31
2022-10-06T06:07:18.108Z,6.39
2022-10-06T06:09:49.122Z,6.55
2022-10-06T06:12:17.405Z,6.65
2022-10-06T06:15:13.792Z,6.75
2022-10-06T06:17:49.885Z,6.84
2022-10-06T06:20:18.431Z,6.92
2022-10-06T06:22:52.288Z,7.02
2022-10-06T06:25:22.137Z,7.13
2022-10-06T06:27:50.275Z,7.20
2022-10-06T06:30:18.664Z,7.34
2022-10-06T06:32:47.297Z,7.43
2022-10-06T06:35:15.598Z,7.58
2022-10-06T06:37:46.732Z,7.72
2022-10-06T06:40:17.379Z,7.86
2022-10-06T06:42:50.282Z,7.95
2022-10-06T06:45:45.721Z,7.83
2022-10-06T06:48:23.033Z,7.92
2022-10-06T06:50:58.605Z,7.87
2022-10-06T06:53:29.723Z,7.91
2022-10-06T06:56:00.240Z,7.89
2022-10-06T06:58:31.397Z,7.81
2022-10-06T07:01:14.348Z,7.75
2022-10-06T07:03:57.498Z,7.81
2022-10-06T07:06:29.322Z,7.74
2022-10-06T07:09:00.913Z,7.71
2022-10-06T07:11:37.361Z,7.90
2022-10-06T07:14:12.717Z,8.09
2022-10-06T07:17:03.166Z,8.19
2022-10-06T07:19:43.666Z,8.27
2022-10-06T07:22:36.510Z,8.37
2022-10-06T07:25:22.986Z,8.53
2022-10-06T07:27:57.039Z,8.70
2022-10-06T07:30:40.888Z,8.84
2022-10-06T07:33:14.718Z,8.91
2022-10-06T07:35:44.693Z,9.06
2022-10-06T07:38:15.637Z,9.08
2022-10-06T07:41:14.891Z,9.08
2022-10-06T07:43:44.847Z,9.22
2022-10-06T07:46:14.275Z,9.34
2022-10-06T07:48:49.463Z,9.42
2022-10-06T07:51:19.794Z,9.57
2022-10-06T07:53:50.937Z,9.73
2022-10-06T07:56:41.991Z,9.90
2022-10-06T07:59:13.457Z,10.06
2022-10-06T08:01:41.754Z,10.21
2022-10-06T08:04:12.691Z,10.38
2022-10-06T08:06:54.989Z,10.47
2022-10-06T08:09:31.180Z,10.58
2022-10-06T08:12:21.439Z,10.61
2022-10-06T08:14:49.638Z,10.69
2022-10-06T08:17:18.213Z,10.79
2022-10-06T08:19:48.020Z,10.89
2022-10-06T08:22:16.202Z,10.98
2022-10-06T08:25:04.723Z,11.05
2022-10-06T08:27:34.992Z,11.17
2022-10-06T08:30:08.674Z,11.20
2022-10-06T08:32:42.863Z,11.19
2022-10-06T08:35:11.690Z,11.33
2022-10-06T08:37:41.442Z,11.44
2022-10-06T08:40:17.636Z,11.50
2022-10-06T08:42:51.600Z,11.63
2022-10-06T08:45:40.640Z,11.68
2022-10-06T08:48:20.069Z,11.73
2022-10-06T08:51:22.395Z,11.92
2022-10-06T08:54:15.401Z,12.09
2022-10-06T08:57:12.058Z,12.18
2022-10-06T08:59:49.330Z,12.21
2022-10-06T09:02:40.885Z,12.25
2022-10-06T09:05:19.475Z,12.36
2022-10-06T09:08:24.696Z,12.41
2022-10-06T09:11:11.036Z,12.52
2022-10-06T09:13:53.437Z,12.53
2022-10-06T09:16:31.950Z,12.70
2022-10-06T09:19:45.826Z,12.72
2022-10-06T09:22:21.744Z,12.82
2022-10-06T09:24:57.311Z,12.90
2022-10-06T09:27:33.944Z,13.01
2022-10-06T09:30:05.304Z,13.20
2022-10-06T09:32:35.870Z,13.33
2022-10-06T09:35:22.726Z,13.42
2022-10-06T09:41:11.644Z,13.62
2022-10-06T09:43:42.602Z,13.78
2022-10-06T09:46:27.868Z,13.94
2022-10-06T09:49:11.430Z,14.03
2022-10-06T09:52:20.452Z,14.18
2022-10-06T09:55:04.696Z,14.18
2022-10-06T09:57:34.518Z,14.52
2022-10-06T10:00:03.699Z,14.66
2022-10-06T10:02:37.952Z,14.72
2022-10-06T10:05:24.911Z,14.92
2022-10-06T10:08:17.828Z,15.06
2022-10-06T10:10:48.664Z,15.12
2022-10-06T10:13:26.535Z,15.34
2022-10-06T10:16:01.078Z,15.47
2022-10-06T10:18:33.274Z,15.42
2022-10-06T10:21:08.571Z,15.37
2022-10-06T10:23:44.196Z,15.63
2022-10-06T10:26:33.370Z,15.56
2022-10-06T10:29:33.125Z,15.57
2022-10-06T10:32:12.568Z,15.75
2022-10-06T10:34:47.156Z,15.93
2022-10-06T10:37:40.921Z,16.03
2022-10-06T10:40:30.311Z,15.83
2022-10-06T10:43:03.741Z,16.08
2022-10-06T10:45:41.120Z,16.36
2022-10-06T10:48:19.956Z,16.70
2022-10-06T10:51:13.022Z,16.89
2022-10-06T10:53:44.191Z,17.18
2022-10-06T10:56:19.666Z,17.53
2022-10-06T10:58:52.860Z,17.50
2022-10-06T11:02:14.230Z,17.88
2022-10-06T11:04:48.409Z,18.06
2022-10-06T11:08:05.296Z,17.95
2022-10-06T11:11:42.484Z,18.28
2022-10-06T11:15:04.556Z,18.49
2022-10-06T11:18:06.641Z,18.39
2022-10-06T11:20:53.979Z,18.94
2022-10-06T11:24:06.839Z,19.86
2022-10-06T11:27:27.885Z,20.34
2022-10-06T11:30:28.428Z,20.24
2022-10-06T11:33:43.057Z,20.70
2022-10-06T11:36:42.564Z,20.56
2022-10-06T11:40:02.162Z,21.05
2022-10-06T11:42:53.164Z,20.91
2022-10-06T11:45:39.977Z,20.99
2022-10-06T11:48:50.152Z,21.25
2022-10-06T11:51:26.435Z,22.02
2022-10-06T11:54:00.622Z,22.13
2022-10-06T11:56:39.762Z,22.64
2022-10-06T11:59:39.293Z,22.60
2022-10-06T12:02:43.510Z,22.72
2022-10-06T12:05:55.355Z,22.35
2022-10-06T12:08:11.737Z,22.98
2022-10-06T12:10:50.441Z,23.44
2022-10-06T12:20:04.284Z,23.65
2022-10-06T12:22:39.135Z,23.06
2022-10-06T12:25:26.245Z,23.19
2022-10-06T12:28:13.396Z,22.93
2022-10-06T12:31:25.285Z,23.87
2022-10-06T12:33:53.859Z,24.10
2022-10-06T12:36:32.433Z,23.90
2022-10-06T12:39:05.469Z,23.58
2022-10-06T12:41:59.841Z,23.44
2022-10-06T12:44:43.269Z,23.72
2022-10-06T12:47:26.456Z,23.88
2022-10-06T12:50:00.853Z,24.03
2022-10-06T12:52:48.208Z,24.26
2022-10-06T12:55:48.481Z,23.82
2022-10-06T12:58:20.826Z,24.26
2022-10-06T13:00:54.797Z,24.78
2022-10-06T13:03:27.726Z,24.75
2022-10-06T13:06:03.344Z,24.73
2022-10-06T13:08:37.550Z,24.73
2022-10-06T13:11:29.254Z,25.47
2022-10-06T13:14:07.308Z,25.80
2022-10-06T13:16:41.186Z,25.53
2022-10-06T13:19:30.217Z,25.94
2022-10-06T13:22:05.146Z,26.28
2022-10-06T13:24:36.637Z,26.31
2022-10-06T13:27:07.778Z,26.36
2022-10-06T13:29:37.263Z,26.24
2022-10-06T13:32:17.883Z,26.01
2022-10-06T13:34:47.522Z,25.97
2022-10-06T13:37:16.120Z,25.60
2022-10-06T13:39:45.431Z,25.59
2022-10-06T13:42:26.149Z,26.01
2022-10-06T13:45:01.544Z,25.44
2022-10-06T13:47:30.623Z,24.78
2022-10-06T13:50:19.605Z,24.24
2022-10-06T13:52:50.858Z,24.02
2022-10-06T13:55:27.973Z,24.05
2022-10-06T13:58:02.031Z,23.36
2022-10-06T14:00:54.435Z,24.13
2022-10-06T14:03:28.364Z,23.81
2022-10-06T14:06:18.784Z,23.23
2022-10-06T14:08:54.231Z,22.75
2022-10-06T14:11:29.330Z,22.51
2022-10-06T14:13:59.464Z,22.40
2022-10-06T14:16:29.742Z,22.54
2022-10-06T14:19:06.069Z,22.00
2022-10-06T14:21:41.559Z,21.65
2022-10-06T14:24:19.722Z,21.59
2022-10-06T14:26:54.965Z,21.90
2022-10-06T14:29:23.889Z,21.92
2022-10-06T14:32:30.918Z,21.78
2022-10-06T14:35:31.918Z,21.38
2022-10-06T14:38:05.910Z,21.19
2022-10-06T14:40:42.222Z,20.97
2022-10-06T14:43:12.221Z,20.98
2022-10-06T14:45:45.026Z,20.87
2022-10-06T14:48:23.096Z,21.00
2022-10-06T14:50:53.733Z,21.01
2022-10-06T14:53:24.528Z,20.96
2022-10-06T14:55:52.907Z,21.04
2022-10-06T14:58:21.931Z,20.41
2022-10-06T15:00:50.898Z,20.29
2022-10-06T15:03:22.560Z,19.85
2022-10-06T15:06:08.888Z,19.82
2022-10-06T15:08:37.005Z,19.34
2022-10-06T15:11:08.150Z,19.31
2022-10-06T15:13:37.188Z,19.29
2022-10-06T15:16:07.462Z,19.27
2022-10-06T15:18:38.433Z,18.87
2022-10-06T15:21:14.142Z,18.57
2022-10-06T15:23:45.657Z,18.46
2022-10-06T15:26:35.440Z,18.13
2022-10-06T15:29:04.022Z,17.87
2022-10-06T15:31:43.502Z,17.74
2022-10-06T15:34:14.038Z,17.51
2022-10-06T15:36:43.407Z,17.22
2022-10-06T15:39:18.547Z,17.04
2022-10-06T15:41:48.584Z,16.79
2022-10-06T15:44:17.641Z,16.54
2022-10-06T15:46:55.449Z,16.40
2022-10-06T15:49:33.082Z,16.14
2022-10-06T15:52:03.849Z,15.92
2022-10-06T15:54:47.795Z,15.72
2022-10-06T15:57:20.953Z,15.50
2022-10-06T15:59:52.414Z,15.32
2022-10-06T16:02:22.964Z,15.22
2022-10-06T16:05:04.747Z,15.04
2022-10-06T16:07:34.900Z,15.00
2022-10-06T16:10:07.681Z,14.91
2022-10-06T16:12:36.467Z,14.77
2022-10-06T16:15:05.456Z,14.63
2022-10-06T16:17:33.950Z,14.55
2022-10-06T16:20:02.104Z,14.51
2022-10-06T16:22:35.707Z,14.38
2022-10-06T16:25:04.424Z,14.40
2022-10-06T16:27:33.723Z,14.36
2022-10-06T16:30:02.035Z,14.34
2022-10-06T16:32:30.213Z,14.26
2022-10-06T16:35:00.573Z,14.16
2022-10-06T16:37:28.895Z,14.10
2022-10-06T16:39:57.223Z,14.03
2022-10-06T16:42:25.559Z,13.95
2022-10-06T16:44:55.105Z,13.85
2022-10-06T16:47:23.656Z,13.85
2022-10-06T16:49:54.153Z,13.77
2022-10-06T16:52:22.851Z,13.73
2022-10-06T16:54:53.053Z,13.71
2022-10-06T16:57:22.657Z,13.56
2022-10-06T17:00:02.586Z,13.38
2022-10-06T17:02:36.656Z,13.29
2022-10-06T17:05:07.895Z,13.16
2022-10-06T17:07:36.244Z,13.01
2022-10-06T17:10:20.096Z,12.83
2022-10-06T17:12:50.275Z,12.72
2022-10-06T17:15:19.064Z,12.61
2022-10-06T17:17:48.005Z,12.54
2022-10-06T17:20:19.856Z,12.40
2022-10-06T17:22:48.674Z,12.27
2022-10-06T17:25:17.031Z,12.13
2022-10-06T17:27:45.117Z,12.09
2022-10-06T17:30:15.597Z,11.97
2022-10-06T17:32:45.176Z,11.88
2022-10-06T17:35:13.585Z,11.79
2022-10-06T17:37:43.385Z,11.71
2022-10-06T17:40:12.141Z,11.61
2022-10-06T17:42:43.411Z,11.53
2022-10-06T17:45:11.830Z,11.42
2022-10-06T17:47:41.668Z,11.33
2022-10-06T17:50:11.300Z,11.21
2022-10-06T17:52:39.926Z,11.14
2022-10-06T17:55:10.920Z,11.08
2022-10-06T17:57:40.366Z,11.00
2022-10-06T18:00:11.037Z,10.93
2022-10-06T18:02:42.301Z,10.89
2022-10-06T18:05:14.531Z,10.79
2022-10-06T18:07:43.487Z,10.74
2022-10-06T18:10:30.283Z,10.71
2022-10-06T18:12:58.462Z,10.67
2022-10-06T18:15:27.767Z,10.63
2022-10-06T18:17:55.917Z,10.56
2022-10-06T18:20:30.055Z,10.51
2022-10-06T18:22:58.147Z,10.50
2022-10-06T18:25:28.487Z,10.48
2022-10-06T18:27:56.772Z,10.46
2022-10-06T18:30:29.429Z,10.43
2022-10-06T18:36:13.001Z,10.36
2022-10-06T18:38:46.773Z,10.31
2022-10-06T18:41:18.997Z,10.26
2022-10-06T18:43:47.116Z,10.24
2022-10-06T18:46:35.431Z,10.23
2022-10-06T18:49:11.879Z,10.18
2022-10-06T18:51:42.987Z,10.15
2022-10-06T18:54:17.937Z,10.07
2022-10-06T18:56:51.922Z,10.05
2022-10-06T18:59:29.329Z,9.97
2022-10-06T19:02:02.672Z,9.94
2022-10-06T19:04:39.358Z,9.86
2022-10-06T19:07:07.443Z,9.80
2022-10-06T19:09:35.515Z,9.78
2022-10-06T19:12:04.722Z,9.73
2022-10-06T19:14:36.622Z,9.69
2022-10-06T19:17:09.403Z,9.65
2022-10-06T19:19:38.577Z,9.62
2022-10-06T19:22:07.420Z,9.61
2022-10-06T19:24:41.464Z,9.55
2022-10-06T19:27:17.093Z,9.54
2022-10-06T19:29:46.993Z,9.56
2022-10-06T19:32:18.512Z,9.52
2022-10-06T19:34:48.672Z,9.48
2022-10-06T19:37:19.383Z,9.47
2022-10-06T19:39:50.363Z,9.43
2022-10-06T19:42:38.450Z,9.41
2022-10-06T19:45:07.790Z,9.39
2022-10-06T19:47:36.075Z,9.36
2022-10-06T19:50:10.465Z,9.32
2022-10-06T19:52:43.681Z,9.28
2022-10-06T19:55:11.990Z,9.24
2022-10-06T19:57:40.671Z,9.21
2022-10-06T20:00:10.397Z,9.20
2022-10-06T20:02:50.688Z,9.20
2022-10-06T20:05:18.972Z,9.16
2022-10-06T20:07:50.333Z,9.16
2022-10-06T20:10:20.161Z,9.13
2022-10-06T20:12:50.683Z,9.10
2022-10-06T20:15:20.369Z,9.07
2022-10-06T20:17:49.719Z,9.04
2022-10-06T20:20:19.577Z,9.01
2022-10-06T20:22:50.008Z,9.00
2022-10-06T20:25:18.103Z,8.97
2022-10-06T20:27:46.712Z,8.93
2022-10-06T20:30:15.757Z,8.89
2022-10-06T20:32:43.855Z,8.87
2022-10-06T20:35:12.161Z,8.86
2022-10-06T20:37:42.177Z,8.86
2022-10-06T20:40:31.124Z,8.83
2022-10-06T20:43:01.083Z,8.80
2022-10-06T20:45:30.858Z,8.76
2022-10-06T20:48:00.394Z,8.76
2022-10-06T20:50:31.600Z,8.69
2022-10-06T20:52:59.616Z,8.70
2022-10-06T20:55:27.773Z,8.66
2022-10-06T20:57:55.788Z,8.65
2022-10-06T21:00:23.924Z,8.61
2022-10-06T21:02:52.011Z,8.57
2022-10-06T21:05:20.252Z,8.53
2022-10-06T21:07:49.515Z,8.53
2022-10-06T21:10:18.246Z,8.53
2022-10-06T21:12:46.483Z,8.49
2022-10-06T21:15:16.066Z,8.48
2022-10-06T21:17:46.530Z,8.46
2022-10-06T21:20:15.914Z,8.41
2022-10-06T21:22:43.907Z,8.39
2022-10-06T21:25:11.818Z,8.37
2022-10-06T21:27:41.278Z,8.37
2022-10-06T21:30:10.265Z,8.38
2022-10-06T21:32:38.269Z,8.36
2022-10-06T21:35:11.528Z,8.36
2022-10-06T21:37:42.297Z,8.37
2022-10-06T21:40:11.231Z,8.39
2022-10-06T21:42:39.202Z,8.38
2022-10-06T21:45:07.222Z,8.37
2022-10-06T21:47:35.254Z,8.35
2022-10-06T21:50:03.780Z,8.36
2022-10-06T21:52:31.896Z,8.34
2022-10-06T21:54:59.786Z,8.34
2022-10-06T21:57:27.939Z,8.33
2022-10-06T21:59:55.915Z,8.32
2022-10-06T22:02:23.989Z,8.32
2022-10-06T22:04:52.172Z,8.29
2022-10-06T22:07:20.109Z,8.27
2022-10-06T22:09:48.139Z,8.27
2022-10-06T22:12:17.317Z,8.22
2022-10-06T22:14:45.257Z,8.21
2022-10-06T22:17:15.738Z,8.18
2022-10-06T22:19:43.972Z,8.15
2022-10-06T22:22:12.638Z,8.15
2022-10-06T22:24:40.602Z,8.16
2022-10-06T22:27:08.582Z,8.14
2022-10-06T22:29:36.602Z,8.12
2022-10-06T22:32:04.801Z,8.21
2022-10-06T22:34:32.777Z,8.18
2022-10-06T22:37:00.789Z,8.26
2022-10-06T22:39:28.769Z,8.26
2022-10-06T22:41:56.876Z,8.25
2022-10-06T22:44:24.822Z,8.29
2022-10-06T22:46:52.878Z,8.27
2022-10-06T22:49:21.264Z,8.27
2022-10-06T22:51:49.988Z,8.26
2022-10-06T22:54:19.343Z,8.28
2022-10-06T22:56:47.482Z,8.28
2022-10-06T22:59:15.429Z,8.29
2022-10-06T23:01:43.778Z,8.30
2022-10-06T23:04:13.062Z,8.31
2022-10-06T23:06:41.860Z,8.29
2022-10-06T23:09:09.974Z,8.31
2022-10-06T23:11:38.096Z,8.30
2022-10-06T23:14:06.783Z,8.31
2022-10-06T23:16:34.870Z,8.31
2022-10-06T23:19:02.910Z,8.33
2022-10-06T23:21:32.266Z,8.30
2022-10-06T23:24:00.756Z,8.25
2022-10-06T23:26:28.867Z,8.22
2022-10-06T23:28:59.613Z,8.23
2022-10-06T23:31:29.297Z,8.21
2022-10-06T23:33:57.976Z,8.20
2022-10-06T23:36:25.995Z,8.22
2022-10-06T23:38:54.559Z,8.24
2022-10-06T23:41:22.555Z,8.26
2022-10-06T23:43:50.643Z,8.26
2022-10-06T23:46:18.619Z,8.32
2022-10-06T23:48:46.782Z,8.38
2022-10-06T23:51:15.804Z,8.42
2022-10-06T23:53:44.698Z,8.45
2022-10-06T23:56:13.290Z,8.46
2022-10-06T23:58:42.574Z,8.49
